Аэропорт: Нальчик. Нальчик

ICAO: URMN

METAR:
2021-07-28 13:30:00
URMN 281330Z 14001MPS 9999 BKN030 23/13 Q1017 R24/110060 NOSIG RMK QFE726
METAR:
2021-07-28 11:00:00
TAF URMN 281100Z 2812/2821 04003G08MPS 9999 BKN020CB TEMPO 2812/2821 6000 -SHRA BKN016CB